Time;durP1;ratioP1;P1;durP2;ratioP2;P2;SDS_P1;SDS_P2;PMS_P1;PMS_P2;Temp;Humidity;BMP_temperature;BMP_pressure;BME280_temperature;BME280_humidity;BME280_pressure;Samples;Min_cycle;Max_cycle;Signal;HPM_P1;HPM_P2
2023/01/03 05:02:31;;;;;;;6.30;4.80;;;7.70;99.90;;;;;;5060798;23;20508;-72
2023/01/03 05:04:58;;;;;;;6.90;4.60;;;7.60;99.90;;;;;;4987704;28;20455;-72
2023/01/03 05:07:27;;;;;;;4.43;3.83;;;7.60;99.90;;;;;;4987563;28;20543;-73
2023/01/03 05:09:54;;;;;;;7.73;4.60;;;7.60;99.90;;;;;;4987751;28;20450;-73
2023/01/03 05:12:21;;;;;;;5.77;4.27;;;7.60;99.90;;;;;;4987996;28;20486;-73
2023/01/03 05:14:48;;;;;;;4.93;3.97;;;7.60;99.90;;;;;;4987794;28;20739;-73
2023/01/03 05:17:14;;;;;;;4.80;3.80;;;7.60;99.90;;;;;;4987431;28;20455;-73
2023/01/03 05:27:57;;;;;;;5.13;4.00;;;7.50;99.90;;;;;;4986793;28;20427;-73
2023/01/03 05:30:24;;;;;;;6.90;4.70;;;7.50;99.90;;;;;;4988007;28;20819;-73
2023/01/03 05:32:50;;;;;;;6.40;4.13;;;7.40;99.90;;;;;;4987687;28;20467;-72
2023/01/03 05:35:19;;;;;;;11.53;4.57;;;7.40;99.90;;;;;;4988074;28;20471;-72
2023/01/03 05:37:45;;;;;;;5.47;4.50;;;7.40;99.90;;;;;;4987217;28;20456;-73
2023/01/03 05:40:12;;;;;;;7.30;4.00;;;7.40;99.90;;;;;;4987994;28;20459;-72
2023/01/03 05:42:39;;;;;;;7.47;4.53;;;7.40;99.90;;;;;;4988084;28;20456;-73
2023/01/03 05:45:07;;;;;;;4.73;3.80;;;7.40;99.90;;;;;;4988215;28;20467;-73
2023/01/03 05:47:34;;;;;;;4.80;3.90;;;7.40;99.90;;;;;;4987321;28;20474;-73
2023/01/03 05:50:01;;;;;;;4.37;3.77;;;7.30;99.90;;;;;;4987612;28;20451;-73
2023/01/03 05:52:29;;;;;;;6.60;3.50;;;7.30;99.90;;;;;;4987989;28;20471;-72
2023/01/03 05:54:56;;;;;;;6.27;5.00;;;7.30;99.90;;;;;;4987756;28;20447;-73
2023/01/03 05:57:22;;;;;;;7.80;4.60;;;7.30;99.90;;;;;;4987059;28;20455;-73
2023/01/03 05:59:49;;;;;;;5.33;4.40;;;7.30;99.90;;;;;;4987720;28;20455;-73
2023/01/03 06:02:16;;;;;;;4.20;3.80;;;7.30;99.90;;;;;;4987581;28;20495;-72
2023/01/03 06:04:43;;;;;;;4.57;3.80;;;7.20;99.90;;;;;;4987782;28;20456;-73
2023/01/03 06:07:09;;;;;;;5.80;3.60;;;7.10;99.90;;;;;;4986623;28;20459;-73
2023/01/03 06:09:38;;;;;;;5.00;3.70;;;7.10;99.90;;;;;;4987710;28;20462;-73
2023/01/03 06:12:05;;;;;;;6.50;4.50;;;7.00;99.90;;;;;;4987338;28;21003;-73
2023/01/03 06:14:31;;;;;;;5.27;3.97;;;7.00;99.90;;;;;;4987417;28;20466;-73
2023/01/03 06:19:42;;;;;;;6.13;2.93;;;6.90;99.90;;;;;;4987524;28;20438;-72
2023/01/03 06:22:09;;;;;;;4.73;3.30;;;6.90;99.90;;;;;;4986680;28;20503;-73
2023/01/03 06:24:37;;;;;;;5.27;3.63;;;6.90;99.90;;;;;;4987201;28;20454;-73
2023/01/03 06:27:04;;;;;;;4.77;3.53;;;6.90;99.90;;;;;;4986432;28;20451;-73
2023/01/03 06:29:31;;;;;;;5.93;3.47;;;6.90;99.90;;;;;;4986760;28;20456;-73
2023/01/03 06:31:58;;;;;;;5.60;4.20;;;6.90;99.90;;;;;;4987198;28;20468;-74
2023/01/03 06:34:25;;;;;;;4.07;3.67;;;6.80;99.90;;;;;;4987290;28;20467;-73
2023/01/03 06:36:51;;;;;;;4.90;3.90;;;6.80;99.90;;;;;;4986517;28;20483;-73
2023/01/03 06:39:18;;;;;;;4.57;3.47;;;6.90;99.90;;;;;;4986875;28;20460;-72
2023/01/03 06:41:46;;;;;;;4.53;3.40;;;6.80;99.90;;;;;;4986757;28;20503;-72
2023/01/03 06:44:13;;;;;;;4.30;3.90;;;6.80;99.90;;;;;;4986159;28;20462;-72
2023/01/03 06:54:58;;;;;;;4.60;2.83;;;6.60;99.90;;;;;;4986853;28;20471;-73
2023/01/03 06:57:26;;;;;;;2.90;2.37;;;6.60;99.90;;;;;;4985864;28;20455;-72
2023/01/03 06:59:53;;;;;;;5.67;3.40;;;6.50;99.90;;;;;;4986889;28;20492;-73
2023/01/03 07:02:19;;;;;;;4.60;3.77;;;6.50;99.90;;;;;;4986227;28;20509;-73
2023/01/03 07:04:46;;;;;;;4.30;3.90;;;6.50;99.90;;;;;;4986977;28;20474;-73
2023/01/03 07:07:13;;;;;;;5.10;3.80;;;6.50;99.90;;;;;;4985962;28;20463;-72
2023/01/03 07:09:40;;;;;;;6.90;4.03;;;6.40;99.90;;;;;;4986524;28;20463;-73
2023/01/03 07:14:48;;;;;;;5.10;3.40;;;6.40;99.90;;;;;;4985962;28;20565;-70
2023/01/03 07:17:15;;;;;;;10.90;6.23;;;6.40;99.90;;;;;;4986049;28;20460;-72
2023/01/03 07:19:42;;;;;;;8.00;4.63;;;6.40;99.90;;;;;;4986359;28;20506;-72
2023/01/03 07:22:09;;;;;;;6.60;4.30;;;6.40;99.90;;;;;;4986307;28;20495;-72
2023/01/03 07:24:36;;;;;;;6.90;4.20;;;6.40;99.90;;;;;;4986911;28;20457;-72
2023/01/03 07:27:02;;;;;;;8.40;4.10;;;6.30;99.90;;;;;;4985835;28;20459;-72
2023/01/03 07:29:29;;;;;;;8.30;4.17;;;6.20;99.90;;;;;;4986496;28;20439;-72
2023/01/03 07:31:57;;;;;;;9.17;4.80;;;6.10;99.90;;;;;;4986590;28;20494;-71
2023/01/03 07:34:24;;;;;;;5.97;4.43;;;6.00;99.90;;;;;;4986843;28;20513;-71
2023/01/03 07:36:51;;;;;;;4.97;3.73;;;6.00;99.90;;;;;;4985871;28;20454;-72
2023/01/03 07:39:18;;;;;;;4.27;3.87;;;6.00;99.90;;;;;;4984366;28;20463;-72
2023/01/03 07:44:29;;;;;;;3.90;2.80;;;6.00;99.90;;;;;;4986348;28;20510;-72
2023/01/03 07:46:57;;;;;;;4.80;3.10;;;6.00;99.90;;;;;;4985705;28;20456;-71
2023/01/03 07:49:24;;;;;;;2.83;2.63;;;6.00;99.90;;;;;;4985852;28;20455;-71
2023/01/03 07:51:50;;;;;;;6.40;3.60;;;6.00;99.90;;;;;;4985805;28;20474;-71
2023/01/03 07:54:17;;;;;;;5.77;4.00;;;6.10;99.90;;;;;;4985972;28;20451;-72
2023/01/03 07:56:44;;;;;;;8.80;4.50;;;6.00;99.90;;;;;;4989002;28;20541;-70
2023/01/03 07:59:11;;;;;;;4.83;4.30;;;6.00;99.90;;;;;;4989855;28;20820;-72
2023/01/03 08:01:37;;;;;;;4.67;3.90;;;6.00;99.90;;;;;;4989578;28;20503;-72
2023/01/03 08:04:05;;;;;;;7.17;4.20;;;6.00;99.90;;;;;;4989282;28;20455;-71
2023/01/03 08:06:33;;;;;;;5.40;3.90;;;6.00;99.90;;;;;;4988816;28;20975;-72
2023/01/03 08:14:28;;;;;;;6.20;4.30;;;6.00;99.90;;;;;;4989442;28;20919;-72
2023/01/03 08:16:55;;;;;;;7.80;4.70;;;6.00;99.90;;;;;;4988687;28;20974;-72
2023/01/03 08:19:24;;;;;;;5.87;4.40;;;6.00;99.90;;;;;;4989154;28;20963;-72
2023/01/03 08:21:51;;;;;;;9.03;4.90;;;6.00;99.90;;;;;;4989175;28;20521;-71
2023/01/03 08:24:18;;;;;;;7.93;4.37;;;6.10;99.90;;;;;;4989158;28;20455;-71
2023/01/03 08:26:44;;;;;;;6.50;4.80;;;6.10;99.90;;;;;;4988784;28;20470;-72
2023/01/03 08:29:11;;;;;;;6.73;5.30;;;6.20;99.90;;;;;;4989034;28;20485;-71
2023/01/03 08:31:41;;;;;;;5.53;4.93;;;6.20;99.90;;;;;;4988985;28;20587;-70
2023/01/03 08:34:12;;;;;;;9.40;4.53;;;6.20;99.90;;;;;;4988885;28;20458;-72
2023/01/03 08:36:46;;;;;;;7.43;4.50;;;6.20;99.90;;;;;;4988440;28;20447;-72
2023/01/03 08:39:16;;;;;;;6.80;4.37;;;6.20;99.90;;;;;;4987515;28;20451;-72
2023/01/03 08:41:47;;;;;;;6.90;4.80;;;6.20;99.90;;;;;;4988955;28;20514;-72
2023/01/03 08:44:14;;;;;;;8.37;4.47;;;6.20;99.90;;;;;;4989316;28;20462;-70
2023/01/03 08:46:45;;;;;;;4.20;3.80;;;6.20;99.90;;;;;;4988368;28;20470;-72
2023/01/03 08:49:13;;;;;;;6.93;4.77;;;6.20;99.90;;;;;;4989083;28;20443;-72
2023/01/03 08:51:41;;;;;;;7.17;4.00;;;6.20;99.90;;;;;;4988752;28;20474;-72
2023/01/03 08:54:07;;;;;;;5.00;3.70;;;6.20;99.90;;;;;;4988148;28;20944;-71
2023/01/03 08:56:34;;;;;;;7.57;4.17;;;6.30;99.90;;;;;;4987832;28;20486;-70
2023/01/03 08:59:01;;;;;;;6.23;4.20;;;6.30;99.90;;;;;;4988513;28;20943;-72
2023/01/03 09:01:28;;;;;;;4.40;3.97;;;6.40;99.90;;;;;;4988264;28;20510;-71
2023/01/03 09:03:55;;;;;;;7.70;4.17;;;6.40;99.90;;;;;;4988337;28;20461;-72
2023/01/03 09:06:22;;;;;;;6.03;4.03;;;6.40;99.90;;;;;;4987187;28;20467;-72
2023/01/03 09:08:50;;;;;;;8.47;4.13;;;6.50;99.90;;;;;;4987903;28;20468;-72
2023/01/03 09:11:16;;;;;;;6.80;4.83;;;6.50;99.90;;;;;;4987910;28;20482;-71
2023/01/03 09:13:43;;;;;;;6.60;4.70;;;6.60;99.90;;;;;;4988156;28;20466;-72
2023/01/03 09:16:12;;;;;;;6.60;4.57;;;6.70;99.90;;;;;;4987743;28;20448;-72
2023/01/03 09:18:40;;;;;;;7.07;4.30;;;6.70;99.90;;;;;;4988095;28;20895;-72
2023/01/03 09:21:07;;;;;;;6.10;4.93;;;6.70;99.90;;;;;;4987796;28;20988;-72
2023/01/03 09:23:35;;;;;;;13.10;5.00;;;6.70;99.90;;;;;;4987956;28;20495;-71
2023/01/03 09:26:04;;;;;;;10.53;5.47;;;6.80;99.90;;;;;;4986802;28;21019;-72
2023/01/03 09:28:31;;;;;;;5.13;4.63;;;6.70;99.90;;;;;;4987833;28;20835;-70
2023/01/03 09:30:58;;;;;;;10.07;5.83;;;6.70;99.90;;;;;;4987754;28;20995;-72
2023/01/03 09:33:25;;;;;;;7.93;4.90;;;6.70;99.90;;;;;;4987594;28;20936;-72
2023/01/03 09:35:52;;;;;;;7.77;5.60;;;6.70;99.90;;;;;;4987254;28;20451;-71
2023/01/03 09:38:20;;;;;;;5.50;4.37;;;6.80;99.90;;;;;;4987592;28;20463;-71
2023/01/03 09:40:49;;;;;;;7.27;5.17;;;6.90;99.90;;;;;;4987758;28;20468;-72
2023/01/03 09:43:21;;;;;;;6.40;4.97;;;6.90;99.90;;;;;;4987461;28;20496;-71
2023/01/03 09:45:51;;;;;;;6.73;5.47;;;7.00;99.90;;;;;;4987352;28;20821;-71
2023/01/03 09:48:22;;;;;;;6.60;5.30;;;7.00;99.90;;;;;;4987711;28;20691;-72
2023/01/03 09:50:49;;;;;;;8.00;5.37;;;7.00;99.90;;;;;;4987000;28;20472;-72
2023/01/03 10:05:00;;;;;;;7.07;5.80;;;7.30;99.90;;;;;;4987070;28;20516;-63
2023/01/03 10:07:43;;;;;;;10.77;6.07;;;7.30;99.90;;;;;;4976220;28;21004;-63
2023/01/03 10:10:17;;;;;;;6.23;5.63;;;7.30;99.90;;;;;;4987081;28;20455;-71
2023/01/03 10:12:53;;;;;;;8.13;5.37;;;7.40;99.90;;;;;;4987061;28;20486;-72
2023/01/03 10:15:27;;;;;;;9.47;5.93;;;7.40;99.90;;;;;;4986831;28;20458;-72
2023/01/03 10:18:05;;;;;;;6.93;5.03;;;7.50;99.90;;;;;;4986377;28;20446;-72
2023/01/03 10:20:46;;;;;;;10.23;5.40;;;7.50;99.90;;;;;;4987029;28;20865;-72
2023/01/03 10:23:13;;;;;;;11.17;6.60;;;7.60;99.90;;;;;;4986513;28;20483;-70
2023/01/03 10:25:44;;;;;;;9.63;6.30;;;7.60;99.90;;;;;;4985899;28;20534;-72
2023/01/03 10:28:17;;;;;;;7.20;5.80;;;7.60;99.90;;;;;;4985516;28;20455;-72
2023/01/03 10:31:02;;;;;;;8.73;5.60;;;7.60;99.90;;;;;;4986661;28;20483;-72
2023/01/03 10:33:33;;;;;;;7.53;5.70;;;7.60;99.90;;;;;;4986776;28;20790;-71
2023/01/03 10:36:00;;;;;;;6.03;5.30;;;7.60;99.90;;;;;;4986242;28;20622;-71
2023/01/03 10:38:28;;;;;;;9.40;5.93;;;7.70;99.90;;;;;;4986214;28;20467;-72
2023/01/03 10:40:58;;;;;;;8.03;5.20;;;7.80;99.90;;;;;;4986760;28;20472;-72
2023/01/03 10:43:30;;;;;;;5.57;4.87;;;7.80;99.90;;;;;;4985130;28;20495;-72
2023/01/03 10:46:00;;;;;;;6.03;5.00;;;7.90;99.90;;;;;;4985959;28;20448;-72
2023/01/03 10:48:37;;;;;;;18.07;6.50;;;8.00;99.90;;;;;;4986235;28;20531;-72
2023/01/03 10:51:05;;;;;;;6.87;4.70;;;8.10;99.90;;;;;;4986298;28;21009;-72
2023/01/03 10:53:39;;;;;;;11.17;5.20;;;8.20;99.90;;;;;;4986499;28;20456;-72
2023/01/03 10:56:06;;;;;;;5.37;4.37;;;8.30;99.90;;;;;;4985747;28;20986;-72
2023/01/03 10:58:33;;;;;;;11.23;7.13;;;8.40;99.90;;;;;;4986508;28;20462;-71
2023/01/03 11:01:20;;;;;;;11.90;6.90;;;8.50;99.90;;;;;;4986014;28;20490;-72
2023/01/03 11:04:08;;;;;;;14.13;6.90;;;8.70;99.90;;;;;;4985995;28;20501;-72
2023/01/03 11:06:36;;;;;;;9.20;5.47;;;8.80;99.90;;;;;;4985295;28;20443;-72
2023/01/03 11:09:05;;;;;;;6.80;4.80;;;8.90;99.90;;;;;;4986015;28;20455;-72
2023/01/03 11:11:34;;;;;;;6.53;4.93;;;9.00;99.90;;;;;;4985856;28;20480;-72
2023/01/03 11:14:21;;;;;;;6.33;3.60;;;9.30;99.90;;;;;;4982218;28;20875;-71
2023/01/03 11:16:55;;;;;;;8.00;4.50;;;9.80;99.90;;;;;;4985378;28;20538;-71
2023/01/03 11:19:27;;;;;;;6.70;4.90;;;10.00;99.90;;;;;;4986100;28;20440;-73
2023/01/03 11:22:03;;;;;;;5.90;3.97;;;10.10;99.90;;;;;;4984559;28;20484;-73
2023/01/03 11:24:57;;;;;;;3.07;2.70;;;10.20;99.90;;;;;;4985606;28;20450;-73
2023/01/03 11:27:45;;;;;;;4.00;2.90;;;10.60;99.90;;;;;;4960044;28;20459;-73
2023/01/03 11:30:20;;;;;;;3.37;3.07;;;10.90;99.90;;;;;;4986834;28;20436;-70
2023/01/03 11:33:00;;;;;;;3.53;2.47;;;11.20;99.90;;;;;;4989977;28;20860;-73
2023/01/03 11:35:39;;;;;;;6.00;3.63;;;11.30;99.90;;;;;;4990002;28;20462;-73
2023/01/03 11:38:22;;;;;;;4.97;3.40;;;11.50;99.90;;;;;;4989274;28;20440;-73
2023/01/03 11:41:02;;;;;;;3.50;3.00;;;11.80;99.90;;;;;;4989552;28;21256;-71
2023/01/03 11:43:45;;;;;;;5.70;3.10;;;11.80;99.90;;;;;;4989818;28;20479;-72
2023/01/03 11:46:24;;;;;;;4.10;2.60;;;11.70;99.90;;;;;;4989283;28;20451;-73
2023/01/03 11:49:04;;;;;;;3.00;2.70;;;11.80;99.90;;;;;;4989526;28;20439;-73
2023/01/03 11:51:41;;;;;;;4.70;2.70;;;11.80;99.90;;;;;;4989663;28;20482;-72
2023/01/03 11:54:17;;;;;;;2.57;2.37;;;12.00;99.90;;;;;;4989867;28;20447;-73
2023/01/03 11:56:46;;;;;;;3.43;2.50;;;12.20;99.90;;;;;;4989120;28;21246;-73
2023/01/03 11:59:45;;;;;;;3.47;2.80;;;12.30;99.90;;;;;;4989363;28;20459;-72
2023/01/03 12:02:55;;;;;;;3.53;2.60;;;12.20;99.90;;;;;;4989113;28;20483;-73
2023/01/03 12:05:43;;;;;;;5.50;3.13;;;12.10;99.90;;;;;;4988276;28;20459;-73
2023/01/03 12:08:36;;;;;;;4.50;2.83;;;12.10;99.90;;;;;;4988687;28;20485;-73
2023/01/03 12:11:10;;;;;;;4.70;2.90;;;12.00;99.90;;;;;;4986508;28;20483;-72
2023/01/03 12:13:42;;;;;;;6.60;3.30;;;11.90;99.90;;;;;;4989067;28;20949;-72
2023/01/03 12:16:15;;;;;;;3.43;3.13;;;11.90;99.90;;;;;;4987452;28;20927;-73
2023/01/03 12:18:50;;;;;;;3.23;2.60;;;11.80;99.90;;;;;;4989065;28;20431;-71
2023/01/03 12:21:26;;;;;;;3.40;2.90;;;11.90;99.90;;;;;;4989308;28;20485;-73
2023/01/03 12:24:00;;;;;;;3.10;2.80;;;11.90;99.90;;;;;;4989475;28;20486;-73
2023/01/03 12:26:30;;;;;;;3.13;2.57;;;11.90;99.90;;;;;;4988732;28;20442;-71
2023/01/03 12:29:04;;;;;;;6.90;3.07;;;12.00;99.90;;;;;;4988998;28;20954;-73
2023/01/03 12:31:37;;;;;;;9.63;3.07;;;12.10;99.90;;;;;;4989226;28;20517;-73
2023/01/03 12:34:17;;;;;;;4.23;2.77;;;12.60;99.90;;;;;;4988867;28;20925;-72
2023/01/03 12:36:53;;;;;;;2.80;2.50;;;12.80;99.90;;;;;;4986948;28;20828;-72
2023/01/03 12:39:36;;;;;;;4.70;2.73;;;12.80;99.90;;;;;;4988669;28;20451;-73
2023/01/03 12:42:09;;;;;;;2.57;2.37;;;12.80;99.90;;;;;;4987580;28;20574;-73
2023/01/03 12:44:40;;;;;;;3.17;2.07;;;12.90;99.90;;;;;;4988426;28;20499;-71
2023/01/03 12:47:18;;;;;;;2.87;2.40;;;12.80;99.90;;;;;;4988337;28;20443;-73
2023/01/03 12:49:52;;;;;;;2.97;2.10;;;12.60;99.90;;;;;;4987315;28;20821;-73
2023/01/03 12:52:24;;;;;;;3.23;2.57;;;12.50;99.90;;;;;;4988421;28;20821;-73
2023/01/03 12:54:58;;;;;;;3.10;2.13;;;12.50;99.90;;;;;;4988446;28;20464;-72
2023/01/03 12:57:48;;;;;;;2.03;1.83;;;12.50;99.90;;;;;;4987967;28;20440;-72
2023/01/03 13:00:42;;;;;;;2.33;1.83;;;12.40;99.90;;;;;;4988387;28;20826;-72
2023/01/03 13:03:20;;;;;;;5.10;2.10;;;12.30;99.90;;;;;;4986584;28;20491;-76
2023/01/03 13:05:50;;;;;;;1.63;1.50;;;12.70;99.90;;;;;;4987234;28;20502;-72
2023/01/03 13:08:29;;;;;;;3.93;1.77;;;13.30;99.90;;;;;;4987287;28;20448;-72
2023/01/03 13:10:59;;;;;;;3.80;1.73;;;13.50;99.90;;;;;;4988297;28;20479;-73
2023/01/03 13:13:26;;;;;;;2.90;1.73;;;13.30;99.90;;;;;;4988421;28;20829;-73
2023/01/03 13:15:53;;;;;;;1.83;1.40;;;13.30;99.90;;;;;;4987789;28;20487;-71
2023/01/03 13:18:44;;;;;;;1.50;1.40;;;13.30;99.90;;;;;;4987792;28;20483;-73
2023/01/03 13:21:49;;;;;;;3.13;1.80;;;13.40;99.90;;;;;;4991776;28;20479;-72
2023/01/03 13:24:43;;;;;;;2.70;1.60;;;13.20;99.90;;;;;;4987708;28;20495;-73
2023/01/03 13:27:22;;;;;;;2.97;1.47;;;13.20;99.90;;;;;;4987010;28;20463;-73
2023/01/03 13:29:56;;;;;;;1.73;1.37;;;13.00;99.90;;;;;;4987270;28;20790;-71
2023/01/03 13:32:26;;;;;;;2.13;1.60;;;13.10;99.90;;;;;;4987442;28;20471;-72
2023/01/03 13:35:32;;;;;;;3.10;1.57;;;13.10;99.90;;;;;;4987448;28;20454;-73
2023/01/03 13:38:17;;;;;;;1.77;1.40;;;13.10;99.90;;;;;;4986492;28;20960;-73
2023/01/03 13:40:47;;;;;;;1.70;1.57;;;13.20;99.90;;;;;;4987329;28;21091;-71
2023/01/03 13:43:19;;;;;;;3.20;1.80;;;13.00;99.90;;;;;;4987657;28;20494;-71
2023/01/03 13:45:52;;;;;;;4.13;1.53;;;12.90;99.90;;;;;;4987380;28;20836;-72
2023/01/03 13:48:33;;;;;;;1.47;1.30;;;12.80;99.90;;;;;;4987372;28;20440;-73
2023/01/03 13:51:07;;;;;;;1.73;1.37;;;12.90;99.90;;;;;;4987228;28;20481;-72
2023/01/03 13:53:38;;;;;;;2.27;1.00;;;12.90;99.90;;;;;;4986120;28;20462;-73
2023/01/03 13:56:22;;;;;;;2.47;1.43;;;12.70;99.90;;;;;;4986550;28;20439;-73
2023/01/03 13:58:52;;;;;;;4.20;1.37;;;12.60;99.90;;;;;;4984599;28;21185;-73
2023/01/03 14:01:30;;;;;;;6.80;1.57;;;12.70;99.90;;;;;;4987000;28;20487;-72
2023/01/03 14:04:22;;;;;;;2.07;1.50;;;12.90;99.90;;;;;;4987253;28;20480;-72
2023/01/03 14:07:33;;;;;;;2.07;1.10;;;13.00;99.90;;;;;;4985583;28;20451;-72
2023/01/03 14:10:15;;;;;;;2.63;1.40;;;13.10;99.90;;;;;;4987169;28;20448;-73
2023/01/03 14:13:10;;;;;;;2.13;1.57;;;13.10;99.90;;;;;;4986019;28;20456;-73
2023/01/03 14:15:37;;;;;;;1.60;1.20;;;13.10;99.90;;;;;;4985847;28;21256;-72
2023/01/03 14:18:19;;;;;;;1.77;1.47;;;13.10;99.90;;;;;;4986514;28;20465;-73
2023/01/03 14:20:49;;;;;;;2.63;1.43;;;13.10;99.90;;;;;;4987210;28;20476;-73
2023/01/03 14:23:17;;;;;;;4.70;1.53;;;12.90;99.90;;;;;;4985683;28;20499;-73
2023/01/03 14:25:45;;;;;;;2.43;1.60;;;12.70;99.90;;;;;;4986670;28;20459;-73
2023/01/03 14:28:19;;;;;;;2.90;1.87;;;12.50;99.90;;;;;;4985351;28;20548;-73
2023/01/03 14:30:51;;;;;;;1.40;1.30;;;12.50;99.90;;;;;;4986443;28;20479;-73
2023/01/03 14:33:20;;;;;;;2.80;1.60;;;12.40;99.90;;;;;;4986551;28;20452;-72
2023/01/03 14:35:48;;;;;;;1.40;1.30;;;12.30;99.90;;;;;;4986161;28;20455;-73
2023/01/03 14:38:25;;;;;;;3.03;1.50;;;12.30;99.90;;;;;;4985895;28;21011;-71
2023/01/03 14:40:54;;;;;;;2.40;1.50;;;12.20;99.90;;;;;;4986455;28;20483;-73
2023/01/03 14:43:24;;;;;;;3.23;1.70;;;12.20;99.90;;;;;;4986711;28;20491;-73
2023/01/03 14:45:54;;;;;;;3.93;2.10;;;12.20;99.90;;;;;;4986107;28;20448;-72
2023/01/03 14:48:22;;;;;;;2.03;1.80;;;12.10;99.90;;;;;;4986254;28;20459;-73
2023/01/03 14:50:50;;;;;;;2.00;1.70;;;12.10;99.90;;;;;;4986485;28;20476;-73
2023/01/03 14:53:17;;;;;;;2.90;1.70;;;12.10;99.90;;;;;;4986318;28;20956;-73
2023/01/03 14:55:52;;;;;;;3.70;1.80;;;12.10;99.90;;;;;;4986132;28;20464;-72
2023/01/03 14:58:28;;;;;;;2.40;2.00;;;12.20;99.90;;;;;;4986199;28;20446;-72
2023/01/03 15:00:56;;;;;;;2.83;1.93;;;12.10;99.90;;;;;;4985890;28;20490;-73
2023/01/03 15:03:24;;;;;;;2.27;1.70;;;12.00;99.90;;;;;;4985828;28;20495;-72
2023/01/03 15:05:54;;;;;;;6.60;1.80;;;12.00;99.90;;;;;;4984944;28;20451;-71
2023/01/03 15:08:25;;;;;;;3.30;2.10;;;12.00;99.90;;;;;;4986187;28;20459;-72
2023/01/03 15:10:54;;;;;;;3.73;1.87;;;11.90;99.90;;;;;;4986086;28;20478;-73
2023/01/03 15:13:26;;;;;;;2.40;2.00;;;11.90;99.90;;;;;;4986034;28;20452;-72
2023/01/03 15:15:55;;;;;;;5.00;1.93;;;11.80;99.90;;;;;;4985347;28;20948;-72
2023/01/03 15:18:24;;;;;;;3.53;2.23;;;11.70;99.90;;;;;;4985856;28;20952;-73
2023/01/03 15:20:53;;;;;;;3.10;2.00;;;11.60;99.90;;;;;;4985861;28;20566;-73
2023/01/03 15:23:28;;;;;;;4.83;2.17;;;11.50;99.90;;;;;;4985713;28;20974;-73
2023/01/03 15:25:55;;;;;;;3.50;2.20;;;11.40;99.90;;;;;;4985629;28;20462;-72
2023/01/03 15:28:28;;;;;;;2.07;1.87;;;11.40;99.90;;;;;;4985821;28;20457;-73
2023/01/03 15:31:00;;;;;;;3.03;1.60;;;11.30;99.90;;;;;;4985892;28;21082;-71
2023/01/03 15:33:32;;;;;;;4.60;2.20;;;11.20;99.90;;;;;;4985934;28;20454;-73
2023/01/03 15:36:02;;;;;;;2.83;2.00;;;11.10;99.90;;;;;;4985303;28;20956;-73
2023/01/03 15:38:33;;;;;;;2.90;1.80;;;11.00;99.90;;;;;;4986012;28;20931;-73
2023/01/03 15:41:01;;;;;;;3.00;1.87;;;11.00;99.90;;;;;;4986091;28;20467;-71
2023/01/03 15:43:32;;;;;;;5.47;2.90;;;10.90;99.90;;;;;;4986252;28;20459;-73
2023/01/03 15:46:03;;;;;;;5.00;3.40;;;10.90;99.90;;;;;;4985159;28;20928;-73
2023/01/03 15:48:34;;;;;;;8.33;5.13;;;10.80;99.90;;;;;;4985986;28;20447;-72
2023/01/03 15:51:02;;;;;;;9.43;5.37;;;10.70;99.90;;;;;;4985752;28;21125;-73
2023/01/03 15:53:30;;;;;;;9.43;5.57;;;10.70;99.90;;;;;;4983752;28;20452;-71
2023/01/03 15:56:02;;;;;;;11.77;9.10;;;10.60;99.90;;;;;;4984965;28;20544;-73
2023/01/03 15:58:31;;;;;;;16.00;10.30;;;10.50;99.90;;;;;;4984425;28;20451;-72
2023/01/03 16:00:59;;;;;;;13.33;9.57;;;10.40;99.90;;;;;;4985719;28;20478;-73
2023/01/03 16:03:30;;;;;;;15.33;9.40;;;10.30;99.90;;;;;;4985429;28;20530;-73
2023/01/03 16:05:57;;;;;;;11.60;8.00;;;10.30;99.90;;;;;;4986778;28;20451;-73
2023/01/03 16:08:29;;;;;;;14.07;8.20;;;10.30;99.90;;;;;;4985739;28;20830;-73
2023/01/03 16:10:58;;;;;;;13.40;8.00;;;10.20;99.90;;;;;;4985714;28;20474;-72
2023/01/03 16:13:26;;;;;;;11.27;8.33;;;10.20;99.90;;;;;;4985762;28;20970;-73
2023/01/03 16:15:57;;;;;;;8.60;6.80;;;10.20;99.90;;;;;;4985726;28;20468;-72
2023/01/03 16:18:35;;;;;;;8.53;6.07;;;10.20;99.90;;;;;;4989464;28;20531;-72
2023/01/03 16:21:03;;;;;;;11.80;7.93;;;10.20;99.90;;;;;;4989344;28;20475;-73
2023/01/03 16:23:32;;;;;;;12.87;8.07;;;10.10;99.90;;;;;;4989206;28;20452;-72
2023/01/03 16:25:59;;;;;;;13.47;6.93;;;10.10;99.90;;;;;;4987648;28;20471;-72
2023/01/03 16:28:26;;;;;;;13.83;5.90;;;10.00;99.90;;;;;;4988276;28;20455;-73
2023/01/03 16:31:03;;;;;;;10.33;7.00;;;10.00;99.90;;;;;;4989003;28;20479;-73
2023/01/03 16:33:33;;;;;;;11.80;6.93;;;10.00;99.90;;;;;;4989171;28;20435;-73
2023/01/03 16:36:00;;;;;;;9.90;7.07;;;9.90;99.90;;;;;;4988481;28;20470;-73
2023/01/03 16:38:28;;;;;;;14.57;8.60;;;9.90;99.90;;;;;;4988916;28;20468;-72
2023/01/03 16:40:55;;;;;;;14.27;8.23;;;9.90;99.90;;;;;;4988347;28;20471;-73
2023/01/03 16:43:23;;;;;;;13.93;9.23;;;9.80;99.90;;;;;;4988750;28;20538;-72
2023/01/03 16:45:50;;;;;;;11.53;7.13;;;9.80;99.90;;;;;;4988242;28;20549;-73
2023/01/03 16:48:21;;;;;;;13.10;9.70;;;9.80;99.90;;;;;;4987377;28;20460;-73
2023/01/03 16:50:52;;;;;;;16.87;9.83;;;9.70;99.90;;;;;;4988543;28;20471;-72
2023/01/03 16:53:27;;;;;;;13.47;8.83;;;9.70;99.90;;;;;;4988319;28;20455;-72
2023/01/03 16:55:55;;;;;;;13.67;9.03;;;9.70;99.90;;;;;;4987956;28;20957;-72
2023/01/03 16:58:23;;;;;;;15.70;8.17;;;9.60;99.90;;;;;;4987219;28;20852;-72
2023/01/03 17:00:51;;;;;;;17.83;9.67;;;9.60;99.90;;;;;;4986535;28;20491;-72
2023/01/03 17:03:20;;;;;;;16.77;9.27;;;9.50;99.90;;;;;;4987107;28;20455;-72
2023/01/03 17:05:48;;;;;;;18.17;9.73;;;9.50;99.90;;;;;;4987027;28;20492;-73
2023/01/03 17:08:21;;;;;;;16.47;7.83;;;9.40;99.90;;;;;;4987089;28;20501;-72
2023/01/03 17:10:50;;;;;;;9.73;7.77;;;9.30;99.90;;;;;;4987658;28;20491;-72
2023/01/03 17:13:28;;;;;;;12.30;8.00;;;9.30;99.90;;;;;;4987938;28;20486;-73
2023/01/03 17:15:55;;;;;;;11.20;6.90;;;9.20;99.90;;;;;;4986613;28;20951;-73
2023/01/03 17:18:25;;;;;;;9.83;7.03;;;9.20;99.90;;;;;;4987871;28;20474;-73
2023/01/03 17:20:56;;;;;;;16.07;8.73;;;9.10;99.90;;;;;;4987271;28;20479;-72
2023/01/03 17:23:24;;;;;;;17.83;9.77;;;9.10;99.90;;;;;;4987121;28;20448;-72
2023/01/03 17:25:51;;;;;;;13.40;8.83;;;9.00;99.90;;;;;;4987610;28;20511;-73
2023/01/03 17:28:18;;;;;;;15.67;9.83;;;8.90;99.90;;;;;;4986670;28;20456;-73
2023/01/03 17:30:45;;;;;;;16.13;10.57;;;8.80;99.90;;;;;;4987285;28;20578;-73
2023/01/03 17:33:14;;;;;;;19.23;10.37;;;8.80;99.90;;;;;;4987269;28;20836;-72
2023/01/03 17:35:44;;;;;;;14.60;9.00;;;8.70;99.90;;;;;;4987575;28;20460;-72
2023/01/03 17:38:14;;;;;;;16.97;8.47;;;8.60;99.90;;;;;;4987119;28;20436;-73
2023/01/03 17:40:43;;;;;;;9.93;6.57;;;8.60;99.90;;;;;;4987286;28;20475;-73
2023/01/03 17:43:20;;;;;;;15.07;8.87;;;8.60;99.90;;;;;;4987016;28;20459;-73
2023/01/03 17:51:18;;;;;;;15.00;11.30;;;8.60;99.90;;;;;;4987070;28;20463;-74
2023/01/03 17:53:46;;;;;;;23.03;11.53;;;8.50;99.90;;;;;;4986781;28;20487;-73
2023/01/03 17:56:15;;;;;;;24.40;12.07;;;8.50;99.90;;;;;;4986461;28;20454;-72
2023/01/03 17:58:42;;;;;;;25.30;16.33;;;8.50;99.90;;;;;;4986794;28;20455;-72
2023/01/03 18:01:11;;;;;;;25.27;15.00;;;8.60;99.90;;;;;;4987187;28;20479;-72
2023/01/03 18:03:38;;;;;;;24.87;14.60;;;8.50;99.90;;;;;;4986956;28;20963;-72
2023/01/03 18:06:10;;;;;;;20.83;14.33;;;8.40;99.90;;;;;;4986341;28;20523;-71
2023/01/03 18:08:39;;;;;;;21.43;15.40;;;8.40;99.90;;;;;;4986733;28;20440;-71
2023/01/03 18:11:07;;;;;;;25.70;18.27;;;8.40;99.90;;;;;;4986683;28;20483;-71
2023/01/03 18:13:36;;;;;;;27.90;18.63;;;8.40;99.90;;;;;;4986714;28;20452;-71
2023/01/03 18:16:04;;;;;;;30.40;18.67;;;8.30;99.90;;;;;;4986236;28;20466;-71
2023/01/03 18:18:31;;;;;;;29.83;18.40;;;8.30;99.90;;;;;;4986685;28;20991;-71
2023/01/03 18:20:59;;;;;;;24.40;16.03;;;8.20;99.90;;;;;;4986206;28;20489;-71
2023/01/03 18:23:29;;;;;;;21.80;14.00;;;8.10;99.90;;;;;;4986327;28;20956;-71
2023/01/03 18:26:00;;;;;;;13.90;10.57;;;8.00;99.90;;;;;;4985725;28;21023;-71
2023/01/03 18:28:27;;;;;;;14.40;10.70;;;7.80;99.90;;;;;;4985952;28;21262;-71
2023/01/03 18:30:55;;;;;;;14.53;9.27;;;7.80;99.90;;;;;;4986265;28;20480;-71
2023/01/03 18:33:22;;;;;;;16.00;9.37;;;7.70;99.90;;;;;;4985987;28;20460;-71
2023/01/03 18:35:50;;;;;;;13.03;9.00;;;7.60;99.90;;;;;;4986425;28;20460;-71
2023/01/03 18:38:26;;;;;;;11.50;8.30;;;7.50;99.90;;;;;;4986244;28;20459;-71
2023/01/03 18:40:53;;;;;;;11.43;8.47;;;7.50;99.90;;;;;;4985060;28;20598;-72
2023/01/03 18:43:23;;;;;;;14.63;9.20;;;7.50;99.90;;;;;;4986019;28;20463;-71
2023/01/03 18:45:50;;;;;;;17.23;11.13;;;7.40;99.90;;;;;;4986217;28;20501;-73
2023/01/03 18:48:19;;;;;;;13.73;10.40;;;7.40;99.90;;;;;;4985855;28;20565;-71
2023/01/03 18:50:48;;;;;;;19.30;10.57;;;7.30;99.90;;;;;;4986159;28;20475;-71
2023/01/03 18:53:17;;;;;;;16.67;12.00;;;7.30;99.90;;;;;;4986146;28;20447;-71
2023/01/03 18:55:45;;;;;;;17.50;11.07;;;7.30;99.90;;;;;;4986039;28;20454;-71
2023/01/03 18:58:24;;;;;;;19.63;12.40;;;7.30;99.90;;;;;;4985158;28;20461;-71
2023/01/03 19:00:51;;;;;;;21.83;12.20;;;7.30;99.90;;;;;;4985979;28;20489;-71